Time;durP1;ratioP1;P1;durP2;ratioP2;P2;SDS_P1;SDS_P2;PMS_P1;PMS_P2;Temp;Humidity;BMP_temperature;BMP_pressure;BME280_temperature;BME280_humidity;BME280_pressure;Samples;Min_cycle;Max_cycle;Signal;HPM_P1;HPM_P2
2022/06/11 00:01:50;;;;;;;1999.90;999.90;;;;;;;14.32;100.00;94168.47;5117310;28;20201;-60
2022/06/11 00:04:29;;;;;;;1999.90;999.90;;;;;;;14.32;100.00;94173.97;5117701;28;20222;-60
2022/06/11 00:07:04;;;;;;;1999.90;999.90;;;;;;;14.28;100.00;94178.84;5117291;28;20189;-60
2022/06/11 00:09:31;;;;;;;1999.90;999.90;;;;;;;14.26;100.00;94175.78;5117775;28;20189;-59
2022/06/11 00:11:57;;;;;;;1999.90;999.90;;;;;;;14.20;100.00;94180.31;5117698;28;20217;-60
2022/06/11 00:14:27;;;;;;;1999.90;999.90;;;;;;;14.21;100.00;94173.63;5116950;28;20191;-62
2022/06/11 00:16:52;;;;;;;1999.90;999.90;;;;;;;14.19;100.00;94165.06;5117497;28;20190;-66
2022/06/11 00:19:21;;;;;;;1999.90;999.90;;;;;;;14.10;100.00;94167.81;5117004;28;20206;-66
2022/06/11 00:21:49;;;;;;;1999.90;999.90;;;;;;;14.07;100.00;94151.47;5117335;28;20249;-65
2022/06/11 00:24:15;;;;;;;1999.90;999.90;;;;;;;14.05;100.00;94143.69;5117116;28;20175;-65
2022/06/11 00:26:42;;;;;;;1999.90;999.90;;;;;;;14.05;100.00;94132.72;5117303;28;20189;-66
2022/06/11 00:29:09;;;;;;;1999.90;999.90;;;;;;;14.03;100.00;94129.69;5116716;28;20231;-65
2022/06/11 00:31:35;;;;;;;1999.90;999.90;;;;;;;13.98;100.00;94135.75;5116946;28;20224;-73
2022/06/11 00:34:01;;;;;;;1999.90;999.90;;;;;;;13.91;100.00;94154.50;5116929;28;20183;-56
2022/06/11 00:36:27;;;;;;;1999.90;999.90;;;;;;;13.89;100.00;94152.22;5116942;28;20256;-62
2022/06/11 00:38:53;;;;;;;1999.90;999.90;;;;;;;13.88;100.00;94139.69;5116559;27;20206;-62
2022/06/11 00:41:21;;;;;;;1999.90;999.90;;;;;;;13.85;100.00;94126.91;5116295;28;20277;-62
2022/06/11 00:43:46;;;;;;;1999.90;999.90;;;;;;;13.85;100.00;94102.22;5117174;28;20202;-62
2022/06/11 00:46:34;;;;;;;1999.90;999.90;;;;;;;13.79;100.00;94093.03;5116734;28;20193;-62
2022/06/11 00:48:59;;;;;;;1999.90;999.90;;;;;;;13.74;100.00;94073.66;5116590;28;20192;-61
2022/06/11 00:51:26;;;;;;;1999.90;999.90;;;;;;;13.62;100.00;94064.34;5096479;28;20216;-61
2022/06/11 00:53:57;;;;;;;1999.90;999.90;;;;;;;13.60;100.00;94042.09;5113517;28;20230;-64
2022/06/11 00:56:35;;;;;;;1999.90;999.90;;;;;;;13.60;100.00;94014.69;5113115;28;20195;-63
2022/06/11 00:59:05;;;;;;;1999.90;999.90;;;;;;;13.56;100.00;94019.56;5113309;28;20217;-63
2022/06/11 01:01:31;;;;;;;1999.90;999.90;;;;;;;13.55;100.00;93985.09;5096113;28;20190;-62
2022/06/11 01:03:59;;;;;;;1999.90;999.90;;;;;;;13.52;100.00;93963.31;5113203;28;20178;-63
2022/06/11 01:06:52;;;;;;;1999.90;999.90;;;;;;;13.54;100.00;93947.91;5112923;28;20193;-62
2022/06/11 01:09:22;;;;;;;1999.90;999.90;;;;;;;13.53;100.00;93926.44;5096103;28;20255;-62
2022/06/11 01:12:25;;;;;;;1999.90;999.90;;;;;;;13.51;100.00;93918.66;5096354;28;20221;-61
2022/06/11 01:15:08;;;;;;;1999.90;999.90;;;;;;;13.47;100.00;93933.75;5113339;28;20192;-62
2022/06/11 01:18:22;;;;;;;1999.90;999.90;;;;;;;13.42;100.00;93928.88;5113457;28;20200;-61
2022/06/11 01:21:02;;;;;;;1999.90;999.90;;;;;;;13.39;100.00;93911.34;5031536;28;20234;-62
2022/06/11 01:23:46;;;;;;;1999.90;999.90;;;;;;;13.35;100.00;93908.00;5103888;28;20196;-62
2022/06/11 01:26:41;;;;;;;1999.90;999.90;;;;;;;13.30;100.00;93911.38;5113203;28;20183;-62
2022/06/11 01:29:30;;;;;;;1999.90;999.90;;;;;;;13.26;100.00;93891.56;5096364;28;20201;-66
2022/06/11 01:32:22;;;;;;;1999.90;999.90;;;;;;;13.25;100.00;93890.03;5113317;28;20200;-62
2022/06/11 01:35:05;;;;;;;1999.90;999.90;;;;;;;13.24;100.00;93872.06;5064943;28;20247;-62
2022/06/11 01:37:36;;;;;;;1999.90;999.90;;;;;;;13.20;100.00;93865.97;5095754;28;20301;-62
2022/06/11 01:40:12;;;;;;;1999.90;999.90;;;;;;;13.16;100.00;93854.41;5113079;28;20209;-62
2022/06/11 01:42:50;;;;;;;1999.90;999.90;;;;;;;13.16;100.00;93837.94;5113192;28;20301;-62
2022/06/11 01:45:24;;;;;;;1999.90;999.90;;;;;;;13.13;100.00;93828.66;5095596;28;20191;-55
2022/06/11 01:47:51;;;;;;;1999.90;999.90;;;;;;;13.12;100.00;93829.13;5112576;28;20199;-55
2022/06/11 01:50:20;;;;;;;1999.90;999.90;;;;;;;13.11;100.00;93830.31;5112581;28;20345;-72
2022/06/11 01:53:14;;;;;;;1999.90;999.90;;;;;;;13.08;100.00;93814.81;5114779;28;20191;-72
2022/06/11 01:55:45;;;;;;;1999.90;999.90;;;;;;;13.04;100.00;93808.72;5116606;28;20236;-73
2022/06/11 01:58:41;;;;;;;1999.90;999.90;;;;;;;13.03;100.00;93791.50;5115875;28;20204;-71
2022/06/11 02:01:24;;;;;;;1999.90;999.90;;;;;;;13.02;100.00;93781.00;5116259;28;20282;-71
2022/06/11 02:04:10;;;;;;;1999.90;999.90;;;;;;;13.02;100.00;93772.78;5115930;28;20272;-58
2022/06/11 02:06:50;;;;;;;1999.90;999.90;;;;;;;13.00;100.00;93765.03;5098987;28;20186;-66
2022/06/11 02:09:24;;;;;;;1999.90;999.90;;;;;;;12.98;100.00;93755.75;5116262;28;20235;-66
2022/06/11 02:11:57;;;;;;;1999.90;999.90;;;;;;;12.91;100.00;93756.03;5115759;28;20193;-66
2022/06/11 02:14:44;;;;;;;1999.90;999.90;;;;;;;12.89;100.00;93753.72;5116131;28;20228;-68
2022/06/11 02:17:25;;;;;;;1999.90;999.90;;;;;;;12.85;100.00;93755.09;5116207;28;20197;-67
2022/06/11 02:20:06;;;;;;;1999.90;999.90;;;;;;;12.82;100.00;93747.81;5098299;28;20233;-67
2022/06/11 02:22:46;;;;;;;1999.90;999.90;;;;;;;12.81;100.00;93735.31;5115735;28;20196;-62
2022/06/11 02:25:20;;;;;;;1999.90;999.90;;;;;;;12.76;100.00;93738.69;5115658;28;20221;-63
2022/06/11 02:27:49;;;;;;;1999.90;999.90;;;;;;;12.72;100.00;93735.34;5098656;28;20217;-63
2022/06/11 02:30:20;;;;;;;1999.90;999.90;;;;;;;12.70;100.00;93735.03;5115407;28;20220;-63
2022/06/11 02:32:45;;;;;;;1999.90;999.90;;;;;;;12.64;100.00;93726.66;5098499;28;20195;-64
2022/06/11 02:35:14;;;;;;;1999.90;999.90;;;;;;;12.65;100.00;93709.00;5098264;28;20182;-64
2022/06/11 02:37:45;;;;;;;1999.90;999.90;;;;;;;12.61;100.00;93704.91;5098458;28;20192;-64
2022/06/11 02:40:20;;;;;;;1999.90;999.90;;;;;;;12.61;100.00;93699.44;5098327;28;20212;-56
2022/06/11 02:42:46;;;;;;;1999.90;999.90;;;;;;;12.62;100.00;93695.47;5115507;28;20188;-67
2022/06/11 02:45:13;;;;;;;1999.90;999.90;;;;;;;12.63;100.00;93692.28;5115111;28;20179;-51
2022/06/11 02:47:40;;;;;;;1999.90;999.90;;;;;;;12.63;100.00;93680.56;5115124;28;20302;-53
2022/06/11 02:50:07;;;;;;;1999.90;999.90;;;;;;;12.62;100.00;93687.25;5114978;28;20228;-54
2022/06/11 02:52:33;;;;;;;1999.90;999.90;;;;;;;12.56;100.00;93691.81;5098242;28;20279;-50
2022/06/11 02:54:58;;;;;;;1999.90;999.90;;;;;;;12.53;100.00;93688.00;5098588;28;20220;-53
2022/06/11 02:57:29;;;;;;;1999.90;999.90;;;;;;;12.52;100.00;93677.50;5115044;28;20212;-54
2022/06/11 02:59:55;;;;;;;1999.90;999.90;;;;;;;12.53;100.00;93681.78;5098348;28;20211;-74
2022/06/11 03:02:22;;;;;;;1999.90;999.90;;;;;;;12.51;100.00;93668.56;5097869;28;20187;-51
2022/06/11 03:04:48;;;;;;;1999.90;999.90;;;;;;;12.54;100.00;93662.13;5114749;28;20189;-53
2022/06/11 03:07:13;;;;;;;1999.90;999.90;;;;;;;12.54;100.00;93661.41;5115172;28;20207;-50
2022/06/11 03:09:40;;;;;;;1999.90;999.90;;;;;;;12.54;100.00;93645.72;5115148;28;20192;-51
2022/06/11 03:12:07;;;;;;;1999.90;999.90;;;;;;;12.54;100.00;93642.22;5097873;28;20189;-52
2022/06/11 03:14:33;;;;;;;1999.90;999.90;;;;;;;12.55;100.00;93641.00;5097869;28;20200;-51
2022/06/11 03:16:58;;;;;;;1999.90;999.90;;;;;;;12.57;100.00;93644.06;5098194;28;20211;-50
2022/06/11 03:19:24;;;;;;;1999.90;999.90;;;;;;;12.54;100.00;93639.50;5114793;28;20204;-60
2022/06/11 03:21:53;;;;;;;1999.90;999.90;;;;;;;12.53;100.00;93638.72;5097729;28;20197;-64
2022/06/11 03:24:18;;;;;;;1999.90;999.90;;;;;;;12.52;100.00;93641.91;5114480;28;20197;-63
2022/06/11 03:26:44;;;;;;;1999.90;999.90;;;;;;;12.54;100.00;93650.44;5097497;28;20191;-64
2022/06/11 03:29:10;;;;;;;1999.90;999.90;;;;;;;12.62;100.00;93643.44;5114472;28;20283;-64
2022/06/11 03:31:36;;;;;;;1999.90;999.90;;;;;;;12.66;100.00;93636.59;5114734;28;20224;-63
2022/06/11 03:34:01;;;;;;;1999.90;999.90;;;;;;;12.78;100.00;93619.22;5097405;28;20193;-63
2022/06/11 03:36:27;;;;;;;1999.90;999.90;;;;;;;12.97;100.00;93617.94;5114605;28;20195;-65
2022/06/11 03:38:52;;;;;;;1999.90;999.90;;;;;;;13.18;100.00;93625.22;5114084;28;20209;-60
2022/06/11 03:41:21;;;;;;;1999.90;999.90;;;;;;;13.40;100.00;93657.13;5097702;28;20193;-61
2022/06/11 03:43:46;;;;;;;1999.90;999.90;;;;;;;13.60;100.00;93704.72;5114256;28;20176;-61
2022/06/11 03:46:11;;;;;;;1999.90;999.90;;;;;;;13.76;100.00;93759.19;5114752;28;20268;-61
2022/06/11 03:48:38;;;;;;;1999.90;999.90;;;;;;;13.92;100.00;93821.97;5114223;28;20344;-61
2022/06/11 03:51:06;;;;;;;1999.90;999.90;;;;;;;14.00;100.00;93886.28;5097260;28;20177;-61
2022/06/11 03:53:32;;;;;;;1999.90;999.90;;;;;;;14.10;100.00;93934.47;5097756;28;20198;-66
2022/06/11 03:55:58;;;;;;;1999.90;999.90;;;;;;;14.30;100.00;93967.69;5097133;28;20218;-64
2022/06/11 03:58:25;;;;;;;1999.90;999.90;;;;;;;14.41;100.00;94006.41;5097389;28;20268;-64
2022/06/11 04:03:36;;;;;;;1999.90;999.90;;;;;;;14.99;100.00;94056.31;5115654;28;20200;-64
2022/06/11 04:06:03;;;;;;;1999.90;999.90;;;;;;;15.47;100.00;94124.00;5096842;28;20212;-64
2022/06/11 04:08:29;;;;;;;1999.90;999.90;;;;;;;16.04;100.00;94219.19;5097407;28;20297;-64
2022/06/11 04:10:59;;;;;;;1999.90;999.90;;;;;;;16.56;100.00;94358.41;5097452;28;20241;-64
2022/06/11 04:13:27;;;;;;;1999.90;999.90;;;;;;;17.05;100.00;94534.53;5097452;28;20194;-70
2022/06/11 04:15:53;;;;;;;1999.90;999.90;;;;;;;17.38;100.00;94670.59;5096621;28;20233;-62
2022/06/11 04:18:30;;;;;;;1999.90;999.90;;;;;;;17.77;100.00;94815.97;5096466;28;20180;-62
2022/06/11 04:20:57;;;;;;;1999.90;999.90;;;;;;;18.12;100.00;94953.31;5114419;28;20183;-63
2022/06/11 04:23:24;;;;;;;1999.90;999.90;;;;;;;18.57;100.00;95054.81;5113672;28;20187;-63
2022/06/11 04:25:51;;;;;;;1999.90;999.90;;;;;;;18.81;100.00;95186.53;5113775;28;20187;-63
2022/06/11 04:28:17;;;;;;;1999.90;999.90;;;;;;;19.20;100.00;95270.66;5114651;28;20213;-63
2022/06/11 04:30:42;;;;;;;1999.90;999.90;;;;;;;19.55;100.00;95355.00;5096713;28;20275;-65
2022/06/11 04:33:08;;;;;;;1999.90;999.90;;;;;;;19.91;100.00;95462.31;5096247;28;20183;-62
2022/06/11 04:35:34;;;;;;;1999.90;999.90;;;;;;;20.06;100.00;95515.97;5096394;28;20171;-60
2022/06/11 04:37:59;;;;;;;1999.90;999.90;;;;;;;20.39;100.00;95553.75;5113462;28;20200;-60
2022/06/11 04:40:25;;;;;;;1999.90;999.90;;;;;;;20.48;100.00;95592.59;5113405;28;20206;-60
2022/06/11 04:42:50;;;;;;;1999.90;999.90;;;;;;;20.80;100.00;95630.06;5113459;28;20191;-60
2022/06/11 04:45:18;;;;;;;1999.90;999.90;;;;;;;20.92;100.00;95652.16;5096585;28;20259;-59
2022/06/11 04:47:44;;;;;;;1999.90;999.90;;;;;;;21.21;100.00;95680.22;5113339;28;20194;-61
2022/06/11 04:50:14;;;;;;;1999.90;999.90;;;;;;;21.47;100.00;95711.97;5113712;28;20192;-54
2022/06/11 04:52:39;;;;;;;1999.90;999.90;;;;;;;21.67;100.00;95737.25;5096618;28;20252;-73
2022/06/11 04:55:05;;;;;;;1999.90;999.90;;;;;;;21.72;100.00;95739.47;5113027;28;20191;-73
2022/06/11 04:57:30;;;;;;;1999.90;999.90;;;;;;;21.89;100.00;95757.31;5113060;28;20187;-72
2022/06/11 04:59:56;;;;;;;1999.90;999.90;;;;;;;22.26;100.00;95783.78;5113234;28;20279;-71
2022/06/11 05:02:22;;;;;;;1999.90;999.90;;;;;;;22.40;100.00;95810.94;5113394;28;20188;-74
2022/06/11 05:04:48;;;;;;;1999.90;999.90;;;;;;;22.91;100.00;95812.91;5095926;28;20184;-73
2022/06/11 05:07:13;;;;;;;1999.90;999.90;;;;;;;23.19;100.00;95842.19;5096111;28;20198;-62
2022/06/11 05:09:39;;;;;;;1999.90;999.90;;;;;;;23.53;100.00;95856.34;5096022;28;20188;-67
2022/06/11 05:12:06;;;;;;;1999.90;999.90;;;;;;;23.45;100.00;95865.56;5112994;28;20188;-65
2022/06/11 05:14:31;;;;;;;1999.90;999.90;;;;;;;23.56;100.00;95865.81;5095920;28;20288;-65
2022/06/11 05:16:58;;;;;;;1999.90;999.90;;;;;;;23.43;100.00;95863.25;5113046;28;20211;-65
2022/06/11 05:19:25;;;;;;;1999.90;999.90;;;;;;;23.68;100.00;95878.72;5113816;28;20207;-64
2022/06/11 05:21:51;;;;;;;1999.90;999.90;;;;;;;24.03;100.00;95882.47;5112950;28;20191;-65
2022/06/11 05:24:19;;;;;;;1999.90;999.90;;;;;;;24.40;100.00;95903.22;5096056;28;20248;-64
2022/06/11 05:26:52;;;;;;;1999.90;999.90;;;;;;;24.36;100.00;95905.44;5115085;28;20191;-57
2022/06/11 05:29:29;;;;;;;1999.90;999.90;;;;;;;24.18;100.00;95900.03;5099558;28;20256;-68
2022/06/11 05:31:55;;;;;;;1999.90;999.90;;;;;;;24.55;100.00;95912.38;5099913;28;20195;-68
2022/06/11 05:34:21;;;;;;;1999.90;999.90;;;;;;;25.04;100.00;95929.22;5116286;28;20180;-65
2022/06/11 05:36:47;;;;;;;1999.90;999.90;;;;;;;25.08;100.00;95924.19;5116046;28;20195;-67
2022/06/11 05:39:13;;;;;;;1999.90;999.90;;;;;;;25.96;95.51;95950.69;5099052;28;20212;-66
2022/06/11 05:41:38;;;;;;;1999.90;999.90;;;;;;;26.29;89.52;95973.50;5099241;28;20191;-66
2022/06/11 05:44:05;;;;;;;1999.90;999.90;;;;;;;26.50;87.12;95983.41;5116877;28;20192;-60
2022/06/11 05:46:31;;;;;;;1999.90;999.90;;;;;;;26.57;82.99;95985.78;5116087;28;20184;-61
2022/06/11 05:49:00;;;;;;;1999.90;999.90;;;;;;;26.99;82.12;95983.16;5099021;28;20290;-60
2022/06/11 05:51:32;;;;;;;1999.90;999.90;;;;;;;26.99;75.74;95999.25;5116107;28;20184;-60
2022/06/11 05:54:01;;;;;;;1999.90;999.90;;;;;;;27.14;75.56;96006.28;5098805;28;20286;-61
2022/06/11 05:56:28;;;;;;;1999.90;999.90;;;;;;;27.12;77.16;95994.78;5116294;28;20191;-60
2022/06/11 05:58:57;;;;;;;1999.90;999.90;;;;;;;27.40;75.54;96009.84;5098987;28;20284;-58
2022/06/11 06:01:27;;;;;;;1999.90;999.90;;;;;;;27.22;76.64;96003.81;5099370;28;20184;-58
2022/06/11 06:03:53;;;;;;;1999.90;999.90;;;;;;;27.40;76.09;95998.63;5099313;28;20207;-58
2022/06/11 06:06:18;;;;;;;1999.90;999.90;;;;;;;27.82;72.22;96001.44;5098546;28;20275;-55
2022/06/11 06:08:44;;;;;;;1999.90;999.90;;;;;;;28.33;68.51;96010.94;5115715;28;20179;-54
2022/06/11 06:11:10;;;;;;;1999.90;999.90;;;;;;;28.99;65.68;96016.78;5115649;28;20320;-55
2022/06/11 06:13:48;;;;;;;1999.90;999.90;;;;;;;29.31;62.32;96004.06;5115868;28;20203;-55
2022/06/11 06:16:18;;;;;;;1999.90;999.90;;;;;;;29.84;60.66;96007.38;5115614;28;20215;-54
2022/06/11 06:18:44;;;;;;;1999.90;999.90;;;;;;;29.82;57.12;96009.91;5115879;28;20206;-56
2022/06/11 06:21:10;;;;;;;1999.90;999.90;;;;;;;29.88;55.37;96012.72;5115366;28;20183;-70
2022/06/11 06:23:36;;;;;;;1999.90;999.90;;;;;;;29.24;56.10;96016.56;5115699;28;20186;-71
2022/06/11 06:26:02;;;;;;;1999.90;999.90;;;;;;;29.81;55.34;96021.69;5115381;28;20184;-71
2022/06/11 06:28:27;;;;;;;1999.90;999.90;;;;;;;29.72;55.68;96011.47;5115948;28;20240;-71
2022/06/11 06:30:53;;;;;;;1999.90;999.90;;;;;;;30.50;55.12;96010.00;5115231;28;20267;-74
2022/06/11 06:33:18;;;;;;;1999.90;999.90;;;;;;;30.29;55.50;96013.66;5115364;28;20186;-72
2022/06/11 06:35:44;;;;;;;1999.90;999.90;;;;;;;30.58;54.43;96024.31;5098346;28;20184;-72
2022/06/11 06:38:10;;;;;;;1999.90;999.90;;;;;;;30.31;52.40;96025.97;5097656;28;20294;-72
2022/06/11 06:40:35;;;;;;;1999.90;999.90;;;;;;;31.34;51.15;96028.03;5098097;28;20203;-65
2022/06/11 06:43:03;;;;;;;1999.90;999.90;;;;;;;31.46;48.28;96029.47;5098364;28;20179;-70
2022/06/11 06:45:28;;;;;;;1999.90;999.90;;;;;;;32.05;46.25;96029.50;5097823;28;20208;-71
2022/06/11 06:47:53;;;;;;;1999.90;999.90;;;;;;;32.33;44.78;96027.16;5116324;28;20172;-72
2022/06/11 06:50:19;;;;;;;1999.90;999.90;;;;;;;32.59;44.97;96027.34;5116542;28;20180;-71
2022/06/11 06:52:44;;;;;;;1999.90;999.90;;;;;;;32.78;43.80;96028.13;5115574;28;20179;-71
2022/06/11 06:55:10;;;;;;;1999.90;999.90;;;;;;;33.24;41.97;96022.09;5114816;28;20187;-71
2022/06/11 06:57:36;;;;;;;1999.90;999.90;;;;;;;33.49;42.44;96023.53;5097814;28;20191;-65
2022/06/11 07:00:03;;;;;;;1999.90;999.90;;;;;;;32.95;41.78;96023.03;5097809;28;20207;-61
2022/06/11 07:02:28;;;;;;;1999.90;999.90;;;;;;;33.98;39.41;96014.75;5097732;28;20206;-59
2022/06/11 07:04:54;;;;;;;1999.90;999.90;;;;;;;34.28;41.68;96018.81;5114783;28;20176;-62
2022/06/11 07:07:19;;;;;;;1999.90;999.90;;;;;;;34.77;36.16;96016.31;5115333;28;20203;-66
2022/06/11 07:09:52;;;;;;;1999.90;999.90;;;;;;;35.16;34.29;96017.00;5098124;28;20184;-64
2022/06/11 07:12:17;;;;;;;1999.90;999.90;;;;;;;34.41;35.18;96023.78;5097906;28;20211;-62
2022/06/11 07:14:43;;;;;;;1999.90;999.90;;;;;;;34.07;36.40;96020.00;5097435;28;20252;-60
2022/06/11 07:17:10;;;;;;;1999.90;999.90;;;;;;;34.40;36.28;96022.22;5097853;28;20176;-57
2022/06/11 07:19:47;;;;;;;1999.90;999.90;;;;;;;33.47;35.89;96020.47;5114678;28;20211;-60
2022/06/11 07:22:18;;;;;;;1999.90;999.90;;;;;;;32.73;37.31;96026.16;5115094;28;20194;-61
2022/06/11 07:24:43;;;;;;;1999.90;999.90;;;;;;;33.06;35.45;96027.78;5114566;28;20208;-60
2022/06/11 07:27:14;;;;;;;1999.90;999.90;;;;;;;33.51;35.50;96026.59;5114235;28;20304;-59
2022/06/11 07:30:01;;;;;;;1999.90;999.90;;;;;;;34.40;34.54;96022.22;5115084;28;20254;-58
2022/06/11 07:32:32;;;;;;;1999.90;999.90;;;;;;;35.46;32.51;96022.25;5097747;28;20257;-61
2022/06/11 07:34:58;;;;;;;1999.90;999.90;;;;;;;35.57;30.49;96019.94;5097742;28;20184;-62
2022/06/11 07:37:24;;;;;;;1999.90;999.90;;;;;;;36.20;30.42;96027.88;5114195;28;20191;-58
2022/06/11 07:39:49;;;;;;;1999.90;999.90;;;;;;;34.80;33.48;96029.41;5113819;28;20203;-57
2022/06/11 07:42:14;;;;;;;1999.90;999.90;;;;;;;35.33;32.73;96019.50;5113930;28;20180;-57
2022/06/11 07:44:40;;;;;;;1999.90;999.90;;;;;;;35.87;32.57;96019.47;5113920;28;20335;-57
2022/06/11 07:47:06;;;;;;;1999.90;999.90;;;;;;;35.95;31.48;96023.16;5114153;28;20176;-58
2022/06/11 07:49:32;;;;;;;1999.90;999.90;;;;;;;35.66;31.54;96018.69;5095796;28;20188;-57
2022/06/11 07:51:58;;;;;;;1999.90;999.90;;;;;;;36.61;31.07;96021.34;5097095;28;20199;-58
2022/06/11 07:54:23;;;;;;;1999.90;999.90;;;;;;;36.59;29.75;96013.38;5097163;28;20180;-61
2022/06/11 07:56:49;;;;;;;1999.90;999.90;;;;;;;36.57;29.71;96020.97;5114291;28;20175;-67
2022/06/11 07:59:15;;;;;;;1999.90;999.90;;;;;;;36.68;30.66;96026.34;5097494;28;20210;-64
2022/06/11 08:01:43;;;;;;;1999.90;999.90;;;;;;;36.74;30.38;96018.41;5096988;28;20316;-66
2022/06/11 08:04:09;;;;;;;1999.90;999.90;;;;;;;36.46;29.77;96015.56;5113575;28;20278;-68
2022/06/11 08:06:34;;;;;;;1999.90;999.90;;;;;;;36.21;29.83;96018.03;5096713;28;20211;-69
2022/06/11 08:09:01;;;;;;;1999.90;999.90;;;;;;;34.68;31.20;96022.44;5113686;28;20180;-67
2022/06/11 08:11:26;;;;;;;1999.90;999.90;;;;;;;35.14;32.40;96024.56;5113766;28;20188;-59
2022/06/11 08:13:51;;;;;;;1999.90;999.90;;;;;;;35.22;31.25;96014.03;5097136;28;20182;-60
2022/06/11 08:16:17;;;;;;;1999.90;999.90;;;;;;;34.82;33.06;96016.22;5114186;28;20198;-58
2022/06/11 08:18:44;;;;;;;1999.90;999.90;;;;;;;34.15;32.03;96015.22;5113670;28;20180;-58
2022/06/11 08:21:09;;;;;;;1999.90;999.90;;;;;;;34.33;32.18;96020.81;5097080;28;20236;-59
2022/06/11 08:23:36;;;;;;;1999.90;999.90;;;;;;;35.20;31.26;96017.44;5113538;28;20180;-60
2022/06/11 08:26:02;;;;;;;1999.90;999.90;;;;;;;36.54;29.44;96022.84;5114150;28;20187;-57
2022/06/11 08:28:27;;;;;;;1999.90;999.90;;;;;;;35.13;30.01;96023.00;5096973;28;20183;-58
2022/06/11 08:30:53;;;;;;;1999.90;999.90;;;;;;;35.34;30.18;96024.63;5113596;28;20210;-58
2022/06/11 08:33:19;;;;;;;1999.90;999.90;;;;;;;35.87;29.13;96025.16;5113761;28;20180;-65
2022/06/11 08:35:45;;;;;;;1999.90;999.90;;;;;;;33.70;29.76;96023.72;5113353;28;20186;-67
2022/06/11 08:38:10;;;;;;;1999.90;999.90;;;;;;;33.12;32.04;96023.56;5096557;28;20196;-59
2022/06/11 08:40:48;;;;;;;1999.90;999.90;;;;;;;33.00;33.22;96016.53;5096268;28;20229;-58
2022/06/11 08:43:30;;;;;;;1999.90;999.90;;;;;;;33.37;33.99;96015.75;5113874;28;20195;-60
2022/06/11 08:46:01;;;;;;;1999.90;999.90;;;;;;;34.13;32.15;96012.16;5113500;28;20201;-61
2022/06/11 08:48:42;;;;;;;1999.90;999.90;;;;;;;34.91;31.81;96020.66;5113563;28;20183;-61
2022/06/11 08:51:11;;;;;;;1999.90;999.90;;;;;;;36.00;30.49;96019.38;5113068;28;20193;-63
2022/06/11 08:53:38;;;;;;;1999.90;999.90;;;;;;;35.67;30.45;96014.50;5113189;28;20188;-61
2022/06/11 08:56:12;;;;;;;1999.90;999.90;;;;;;;35.26;29.73;96020.91;5112949;28;20191;-61
2022/06/11 08:59:07;;;;;;;1999.90;999.90;;;;;;;32.97;32.33;96023.28;5096256;28;20241;-63
2022/06/11 09:01:50;;;;;;;1999.90;999.90;;;;;;;34.33;32.14;96008.72;5095673;28;20217;-63
2022/06/11 09:04:50;;;;;;;1999.90;999.90;;;;;;;34.56;30.55;96018.31;5096150;28;20187;-61
2022/06/11 09:07:24;;;;;;;1999.90;999.90;;;;;;;32.64;32.96;96020.09;5096296;28;20196;-52
2022/06/11 09:10:06;;;;;;;1999.90;999.90;;;;;;;31.91;32.85;96025.00;5113014;28;20191;-54
2022/06/11 09:12:56;;;;;;;1999.90;999.90;;;;;;;31.40;34.36;96020.28;5096431;28;20282;-54
2022/06/11 09:15:27;;;;;;;1999.90;999.90;;;;;;;33.66;31.85;96004.19;5113009;28;20194;-57
2022/06/11 09:18:14;;;;;;;1999.90;999.90;;;;;;;34.02;31.39;96006.69;5112834;28;20198;-57
2022/06/11 09:20:46;;;;;;;1999.90;999.90;;;;;;;34.45;31.42;96002.25;5113058;28;20204;-56
2022/06/11 09:23:20;;;;;;;1999.90;999.90;;;;;;;34.85;30.86;96014.34;5113151;28;20192;-54
2022/06/11 09:26:00;;;;;;;1999.90;999.90;;;;;;;35.50;30.00;96005.66;5112713;28;20179;-60
2022/06/11 09:28:26;;;;;;;1999.90;999.90;;;;;;;35.87;29.02;96006.00;5113144;28;20179;-60
2022/06/11 09:31:07;;;;;;;1999.90;999.90;;;;;;;36.43;27.35;96000.38;5112374;28;20340;-61
2022/06/11 09:33:41;;;;;;;1999.90;999.90;;;;;;;37.19;27.79;95992.97;5096203;28;20210;-59
2022/06/11 09:36:20;;;;;;;1999.90;999.90;;;;;;;36.16;28.01;96004.72;5112781;28;20229;-59
2022/06/11 09:38:52;;;;;;;1999.90;999.90;;;;;;;35.15;29.04;95997.66;5112805;28;20307;-59
2022/06/11 09:41:35;;;;;;;1999.90;999.90;;;;;;;34.75;30.33;95999.06;5112378;28;20175;-60
2022/06/11 09:44:24;;;;;;;1999.90;999.90;;;;;;;33.51;29.81;95995.41;5112880;28;20187;-56
2022/06/11 09:47:03;;;;;;;1999.90;999.90;;;;;;;33.30;31.47;95994.47;5112524;28;20176;-59
2022/06/11 09:49:50;;;;;;;1999.90;999.90;;;;;;;33.11;32.40;95996.53;5112733;28;20191;-60
2022/06/11 09:52:32;;;;;;;1999.90;999.90;;;;;;;34.35;30.92;96000.41;5112157;28;20207;-60
2022/06/11 09:55:02;;;;;;;1999.90;999.90;;;;;;;32.27;32.97;96000.19;5095388;28;20180;-60
2022/06/11 09:58:01;;;;;;;1999.90;999.90;;;;;;;32.89;32.96;95999.69;5113645;28;20258;-63
2022/06/11 10:00:59;;;;;;;1999.90;999.90;;;;;;;33.74;32.90;95996.59;5095228;28;20207;-62
2022/06/11 10:03:40;;;;;;;1999.90;999.90;;;;;;;34.02;30.57;95992.50;5107871;28;20188;-61
2022/06/11 10:06:14;;;;;;;1999.90;999.90;;;;;;;33.46;29.94;95999.13;5095619;28;20294;-58
2022/06/11 10:08:48;;;;;;;1999.90;999.90;;;;;;;33.87;31.65;95995.09;5095014;28;20201;-60
2022/06/11 10:11:20;;;;;;;1999.90;999.90;;;;;;;33.40;30.96;95992.75;5112226;28;20191;-60
2022/06/11 10:16:58;;;;;;;1999.90;999.90;;;;;;;33.99;31.23;95996.41;5117090;28;20209;-61
2022/06/11 10:19:39;;;;;;;1999.90;999.90;;;;;;;32.91;32.66;95997.09;5098779;28;20294;-61
2022/06/11 10:22:14;;;;;;;1999.90;999.90;;;;;;;32.19;33.32;95994.34;5115344;28;20263;-61
2022/06/11 10:24:46;;;;;;;1999.90;999.90;;;;;;;31.36;33.85;96002.09;5098850;28;20236;-60
2022/06/11 10:27:17;;;;;;;1999.90;999.90;;;;;;;31.71;35.22;95994.31;5115279;28;20204;-63
2022/06/11 10:29:52;;;;;;;1999.90;999.90;;;;;;;30.95;35.34;95990.78;5098906;28;20248;-63
2022/06/11 10:32:23;;;;;;;1999.90;999.90;;;;;;;30.46;37.51;95998.22;5115318;28;20287;-61
2022/06/11 10:35:23;;;;;;;1999.90;999.90;;;;;;;29.30;38.82;95996.88;5115742;28;20194;-62
2022/06/11 10:38:01;;;;;;;1999.90;999.90;;;;;;;28.64;39.31;95991.13;5099969;28;20253;-64
2022/06/11 10:40:33;;;;;;;1999.90;999.90;;;;;;;27.94;40.67;96002.31;5115317;28;20210;-61
2022/06/11 10:43:01;;;;;;;1999.90;999.90;;;;;;;27.82;43.25;96001.44;5115160;28;20200;-62
2022/06/11 10:45:27;;;;;;;1999.90;999.90;;;;;;;27.52;46.11;95994.59;5115116;28;20175;-61
2022/06/11 10:47:57;;;;;;;1999.90;999.90;;;;;;;27.92;46.62;95988.75;5115152;28;20183;-60
2022/06/11 10:50:33;;;;;;;1999.90;999.90;;;;;;;27.93;46.70;95995.91;5115490;28;20176;-58
2022/06/11 10:53:27;;;;;;;1999.90;999.90;;;;;;;27.66;46.58;95990.88;5115229;28;20226;-59
2022/06/11 10:56:01;;;;;;;1999.90;999.90;;;;;;;28.82;44.28;95985.03;5097734;28;20172;-64
2022/06/11 10:58:31;;;;;;;1999.90;999.90;;;;;;;28.55;44.99;95982.94;5097904;28;20195;-60
2022/06/11 11:01:06;;;;;;;1999.90;999.90;;;;;;;28.45;44.67;95978.81;5098407;28;20196;-62
2022/06/11 11:03:39;;;;;;;1999.90;999.90;;;;;;;29.06;45.46;95982.53;5115710;28;20231;-62
2022/06/11 11:06:08;;;;;;;1999.90;999.90;;;;;;;29.09;44.90;95981.53;5097943;28;20241;-61
2022/06/11 11:08:36;;;;;;;1999.90;999.90;;;;;;;28.85;46.93;95975.56;5098347;28;20184;-69
2022/06/11 11:11:02;;;;;;;1999.90;999.90;;;;;;;29.03;46.41;95980.75;5097633;28;20199;-67
2022/06/11 11:13:30;;;;;;;1999.90;999.90;;;;;;;30.33;43.06;95980.31;5097764;28;20215;-66